createdAt,value
2023-03-01T00:02:13.900Z,28.20
2023-03-01T00:04:40.561Z,30.17
2023-03-01T00:07:07.224Z,26.30
2023-03-01T00:09:34.037Z,27.70
2023-03-01T00:12:09.155Z,27.43
2023-03-01T00:14:36.645Z,28.87
2023-03-01T00:17:05.895Z,28.27
2023-03-01T00:19:38.573Z,29.87
2023-03-01T00:22:11.512Z,29.07
2023-03-01T00:24:42.955Z,29.83
2023-03-01T00:27:11.031Z,27.33
2023-03-01T00:29:42.727Z,28.93
2023-03-01T00:32:14.537Z,30.63
2023-03-01T00:34:44.006Z,30.80
2023-03-01T00:37:16.279Z,27.27
2023-03-01T00:39:43.024Z,29.03
2023-03-01T00:42:16.920Z,29.13
2023-03-01T00:44:45.805Z,29.27
2023-03-01T00:47:14.716Z,31.13
2023-03-01T00:49:41.792Z,29.50
2023-03-01T00:52:09.801Z,28.10
2023-03-01T00:54:42.964Z,27.77
2023-03-01T00:57:09.666Z,27.03
2023-03-01T00:59:48.130Z,28.93
2023-03-01T01:02:16.486Z,29.37
2023-03-01T01:04:43.139Z,28.93
2023-03-01T01:07:11.918Z,28.40
2023-03-01T01:09:38.906Z,27.23
2023-03-01T01:12:06.034Z,26.97
2023-03-01T01:14:41.511Z,27.20
2023-03-01T01:17:13.649Z,26.20
2023-03-01T01:19:43.488Z,25.43
2023-03-01T01:22:13.071Z,27.63
2023-03-01T01:24:39.789Z,29.53
2023-03-01T01:27:09.645Z,26.83
2023-03-01T01:29:36.779Z,29.47
2023-03-01T01:32:05.113Z,31.33
2023-03-01T01:34:31.848Z,26.67
2023-03-01T01:37:03.672Z,29.50
2023-03-01T01:39:33.671Z,29.60
2023-03-01T01:42:02.858Z,29.13
2023-03-01T01:44:36.912Z,31.67
2023-03-01T01:47:09.720Z,27.87
2023-03-01T01:49:58.218Z,26.60
2023-03-01T01:52:32.905Z,29.23
2023-03-01T01:55:24.054Z,31.03
2023-03-01T01:57:54.378Z,28.93
2023-03-01T02:00:24.368Z,28.20
2023-03-01T02:03:10.152Z,26.03
2023-03-01T02:05:59.648Z,28.10
2023-03-01T02:08:37.149Z,29.40
2023-03-01T02:11:05.299Z,27.40
2023-03-01T02:13:34.371Z,27.33
2023-03-01T02:16:05.278Z,27.37
2023-03-01T02:18:34.237Z,28.80
2023-03-01T02:21:11.380Z,28.73
2023-03-01T02:23:40.992Z,27.37
2023-03-01T02:26:16.478Z,26.47
2023-03-01T02:28:51.613Z,27.33
2023-03-01T02:31:40.042Z,26.73
2023-03-01T02:34:08.615Z,27.73
2023-03-01T02:36:38.529Z,25.00
2023-03-01T02:39:08.515Z,26.43
2023-03-01T02:41:39.132Z,25.77
2023-03-01T02:44:08.583Z,26.13
2023-03-01T02:46:47.921Z,26.23
2023-03-01T02:49:36.629Z,24.33
2023-03-01T02:52:42.156Z,26.37
2023-03-01T02:55:19.077Z,26.87
2023-03-01T02:57:51.941Z,26.10
2023-03-01T03:00:28.386Z,24.77
2023-03-01T03:02:58.841Z,27.00
2023-03-01T03:05:30.690Z,24.73
2023-03-01T03:07:59.828Z,25.90
2023-03-01T03:10:32.946Z,24.33
2023-03-01T03:13:02.042Z,22.53
2023-03-01T03:15:30.723Z,26.67
2023-03-01T03:18:01.168Z,26.13
2023-03-01T03:20:29.756Z,24.10
2023-03-01T03:23:13.766Z,24.90
2023-03-01T03:25:43.365Z,24.40
2023-03-01T03:28:12.860Z,27.50
2023-03-01T03:30:40.945Z,24.20
2023-03-01T03:33:13.463Z,24.67
2023-03-01T03:35:45.837Z,24.60
2023-03-01T03:38:22.290Z,23.23
2023-03-01T03:40:55.494Z,26.10
2023-03-01T03:43:24.318Z,24.77
2023-03-01T03:45:52.000Z,23.67
2023-03-01T03:48:24.244Z,23.13
2023-03-01T03:50:56.053Z,24.33
2023-03-01T03:53:27.936Z,26.43
2023-03-01T03:55:57.275Z,26.33
2023-03-01T03:58:25.169Z,24.10
2023-03-01T04:00:56.945Z,24.33
2023-03-01T04:03:29.041Z,25.63
2023-03-01T04:05:57.911Z,24.67
2023-03-01T04:08:25.207Z,24.47
2023-03-01T04:10:54.563Z,24.37
2023-03-01T04:13:23.272Z,24.70
2023-03-01T04:15:56.418Z,27.40
2023-03-01T04:18:25.566Z,29.17
2023-03-01T04:20:53.323Z,23.63
2023-03-01T04:23:23.132Z,24.83
2023-03-01T04:25:56.244Z,28.20
2023-03-01T04:28:28.125Z,27.53
2023-03-01T04:30:58.417Z,29.97
2023-03-01T04:33:26.254Z,27.13
2023-03-01T04:35:55.925Z,24.63
2023-03-01T04:38:23.106Z,25.60
2023-03-01T04:40:52.941Z,27.00
2023-03-01T04:43:22.496Z,26.97
2023-03-01T04:45:52.442Z,27.60
2023-03-01T04:48:23.090Z,26.93
2023-03-01T04:50:50.896Z,25.80
2023-03-01T04:53:19.699Z,26.63
2023-03-01T04:55:46.388Z,28.37
2023-03-01T04:58:15.227Z,24.83
2023-03-01T05:00:46.829Z,27.37
2023-03-01T05:03:19.142Z,26.07
2023-03-01T05:05:47.677Z,26.97
2023-03-01T05:08:18.409Z,25.80
2023-03-01T05:10:54.256Z,25.87
2023-03-01T05:13:22.125Z,25.23
2023-03-01T05:16:02.239Z,26.23
2023-03-01T05:18:33.056Z,24.07
2023-03-01T05:21:06.453Z,25.73
2023-03-01T05:23:39.461Z,26.83
2023-03-01T05:26:13.503Z,24.77
2023-03-01T05:29:07.043Z,27.17
2023-03-01T05:31:35.602Z,24.80
2023-03-01T05:34:05.097Z,26.13
2023-03-01T05:36:32.064Z,24.17
2023-03-01T05:39:03.008Z,27.43
2023-03-01T05:41:32.253Z,27.77
2023-03-01T05:44:00.169Z,25.37
2023-03-01T05:46:26.810Z,25.97
2023-03-01T05:48:56.299Z,25.17
2023-03-01T05:51:27.992Z,27.10
2023-03-01T05:53:56.822Z,27.23
2023-03-01T05:56:25.676Z,26.13
2023-03-01T05:58:55.696Z,26.70
2023-03-01T06:01:22.343Z,25.27
2023-03-01T06:03:52.312Z,29.60
2023-03-01T06:06:18.988Z,25.07
2023-03-01T06:08:52.000Z,24.70
2023-03-01T06:11:21.423Z,28.80
2023-03-01T06:13:53.262Z,28.43
2023-03-01T06:16:29.520Z,29.83
2023-03-01T06:18:56.446Z,27.10
2023-03-01T06:21:29.339Z,28.53
2023-03-01T06:24:00.293Z,31.50
2023-03-01T06:26:29.799Z,28.67
2023-03-01T06:28:59.389Z,28.93
2023-03-01T06:31:31.603Z,29.87
2023-03-01T06:34:05.200Z,28.87
2023-03-01T06:36:32.919Z,31.60
2023-03-01T06:38:59.598Z,29.07
2023-03-01T06:41:26.940Z,32.07
2023-03-01T06:44:03.678Z,32.87
2023-03-01T06:46:33.346Z,32.93
2023-03-01T06:49:03.657Z,31.90
2023-03-01T06:51:31.560Z,31.57
2023-03-01T06:54:01.720Z,27.90
2023-03-01T06:56:33.011Z,30.97
2023-03-01T06:59:03.803Z,34.50
2023-03-01T07:01:32.792Z,34.80
2023-03-01T07:03:59.436Z,34.90
2023-03-01T07:06:26.600Z,32.67
2023-03-01T07:09:00.934Z,32.73
2023-03-01T07:11:27.661Z,34.10
2023-03-01T07:13:56.401Z,32.83
2023-03-01T07:16:24.350Z,33.03
2023-03-01T07:18:52.948Z,32.23
2023-03-01T07:21:19.578Z,36.33
2023-03-01T07:24:09.690Z,51.50
2023-03-01T07:26:39.725Z,40.50
2023-03-01T07:29:08.028Z,33.27
2023-03-01T07:31:34.734Z,33.30
2023-03-01T07:34:09.096Z,32.23
2023-03-01T07:36:40.424Z,34.83
2023-03-01T07:39:07.624Z,33.03
2023-03-01T07:41:41.115Z,32.87
2023-03-01T07:44:08.831Z,34.63
2023-03-01T07:46:35.485Z,34.40
2023-03-01T07:49:05.668Z,32.33
2023-03-01T07:51:34.131Z,35.77
2023-03-01T07:54:03.503Z,31.73
2023-03-01T07:56:30.760Z,33.43
2023-03-01T07:59:13.056Z,34.97
2023-03-01T08:01:49.280Z,36.00
2023-03-01T08:04:18.941Z,34.27
2023-03-01T08:06:46.676Z,35.77
2023-03-01T08:09:14.248Z,34.13
2023-03-01T08:11:43.169Z,34.27
2023-03-01T08:14:10.191Z,34.37
2023-03-01T08:16:37.631Z,32.87
2023-03-01T08:19:08.391Z,32.30
2023-03-01T08:21:38.313Z,33.10
2023-03-01T08:24:12.754Z,32.53
2023-03-01T08:26:42.018Z,33.57
2023-03-01T08:29:08.996Z,34.00
2023-03-01T08:31:43.294Z,30.57
2023-03-01T08:34:18.797Z,32.90
2023-03-01T08:36:47.389Z,34.73
2023-03-01T08:39:19.324Z,31.40
2023-03-01T08:41:50.038Z,32.87
2023-03-01T08:44:26.109Z,30.97
2023-03-01T08:46:59.515Z,34.40
2023-03-01T08:49:27.416Z,33.50
2023-03-01T08:51:57.071Z,33.37
2023-03-01T08:54:23.865Z,34.33
2023-03-01T08:56:52.854Z,32.07
2023-03-01T08:59:26.764Z,32.07
2023-03-01T09:01:54.700Z,30.70
2023-03-01T09:04:27.035Z,32.23
2023-03-01T09:06:56.305Z,31.03
2023-03-01T09:09:28.515Z,32.20
2023-03-01T09:12:21.973Z,33.07
2023-03-01T09:14:48.671Z,30.77
2023-03-01T09:17:22.548Z,33.83
2023-03-01T09:19:51.064Z,31.33
2023-03-01T09:22:17.923Z,35.47
2023-03-01T09:24:44.782Z,32.57
2023-03-01T09:27:14.346Z,31.00
2023-03-01T09:29:49.025Z,30.73
2023-03-01T09:32:15.841Z,32.23
2023-03-01T09:35:01.275Z,29.90
2023-03-01T09:37:29.543Z,29.40
2023-03-01T09:39:58.861Z,31.23
2023-03-01T09:42:32.657Z,30.17
2023-03-01T09:45:06.757Z,28.77
2023-03-01T09:47:36.909Z,30.17
2023-03-01T09:50:19.542Z,28.23
2023-03-01T09:53:04.877Z,27.23
2023-03-01T09:55:44.927Z,31.23
2023-03-01T09:58:40.074Z,28.53
2023-03-01T10:01:33.739Z,27.73
2023-03-01T10:04:22.178Z,27.60
2023-03-01T10:07:14.920Z,29.13
2023-03-01T10:09:43.596Z,26.60
2023-03-01T10:12:19.542Z,28.60
2023-03-01T10:14:57.366Z,24.50
2023-03-01T10:17:34.749Z,22.23
2023-03-01T10:20:31.678Z,22.10
2023-03-01T10:23:00.634Z,25.00
2023-03-01T10:25:30.182Z,24.73
2023-03-01T10:28:03.811Z,28.00
2023-03-01T10:30:39.509Z,25.07
2023-03-01T10:33:44.494Z,26.93
2023-03-01T10:36:14.288Z,24.30
2023-03-01T10:39:02.474Z,25.43
2023-03-01T10:41:33.441Z,25.30
2023-03-01T10:44:07.209Z,25.57
2023-03-01T10:46:51.579Z,24.57
2023-03-01T10:49:23.967Z,24.13
2023-03-01T10:51:53.229Z,25.63
2023-03-01T10:54:22.162Z,23.87
2023-03-01T10:56:57.450Z,25.77
2023-03-01T10:59:35.438Z,25.10
2023-03-01T11:02:30.626Z,26.13
2023-03-01T11:05:02.964Z,23.30
2023-03-01T11:07:42.039Z,23.97
2023-03-01T11:10:19.642Z,24.30
2023-03-01T11:12:46.429Z,22.93
2023-03-01T11:15:32.482Z,21.17
2023-03-01T11:18:13.420Z,20.93
2023-03-01T11:20:47.675Z,20.20
2023-03-01T11:23:19.364Z,21.07
2023-03-01T11:25:57.052Z,20.97
2023-03-01T11:28:27.378Z,21.17
2023-03-01T11:31:08.161Z,23.43
2023-03-01T11:33:51.913Z,21.03
2023-03-01T11:36:36.525Z,23.20
2023-03-01T11:39:20.484Z,21.20
2023-03-01T11:41:59.650Z,19.83
2023-03-01T11:44:44.326Z,19.93
2023-03-01T11:47:59.660Z,22.80
2023-03-01T11:50:50.629Z,19.60
2023-03-01T11:53:35.564Z,20.70
2023-03-01T11:56:10.078Z,20.07
2023-03-01T11:59:06.087Z,21.50
2023-03-01T12:02:13.288Z,21.13
2023-03-01T12:05:05.074Z,21.37
2023-03-01T12:07:51.941Z,20.90
2023-03-01T12:10:29.011Z,21.53
2023-03-01T12:13:16.475Z,22.50
2023-03-01T12:16:13.469Z,21.70
2023-03-01T12:19:09.857Z,22.57
2023-03-01T12:22:18.345Z,21.73
2023-03-01T12:24:49.463Z,20.83
2023-03-01T12:27:41.681Z,22.67
2023-03-01T12:30:41.106Z,21.33
2023-03-01T12:33:31.692Z,24.77
2023-03-01T12:36:42.509Z,21.87
2023-03-01T12:39:37.488Z,20.40
2023-03-01T12:42:49.183Z,22.47
2023-03-01T12:45:52.138Z,21.40
2023-03-01T12:48:28.242Z,22.40
2023-03-01T12:50:58.900Z,21.70
2023-03-01T12:53:37.333Z,20.07
2023-03-01T12:56:27.971Z,19.60
2023-03-01T12:59:18.724Z,20.63
2023-03-01T13:02:07.236Z,19.93
2023-03-01T13:04:55.735Z,21.60
2023-03-01T13:07:39.302Z,24.97
2023-03-01T13:10:29.541Z,21.27
2023-03-01T13:12:58.088Z,20.60
2023-03-01T13:15:24.671Z,20.63
2023-03-01T13:17:55.803Z,19.47
2023-03-01T13:20:27.857Z,19.33
2023-03-01T13:23:22.898Z,20.70
2023-03-01T13:26:16.194Z,20.00
2023-03-01T13:28:45.648Z,19.50
2023-03-01T13:31:26.732Z,19.83
2023-03-01T13:34:09.466Z,20.50
2023-03-01T13:36:38.083Z,18.83
2023-03-01T13:39:28.382Z,19.00
2023-03-01T13:41:57.215Z,18.13
2023-03-01T13:44:29.578Z,16.30
2023-03-01T13:47:08.582Z,17.40
2023-03-01T13:49:49.337Z,16.47
2023-03-01T13:52:40.722Z,14.67
2023-03-01T13:55:50.959Z,14.30
2023-03-01T13:58:27.497Z,14.80
2023-03-01T14:01:02.218Z,15.60
2023-03-01T14:03:33.458Z,15.30
2023-03-01T14:06:15.226Z,14.70
2023-03-01T14:08:43.202Z,13.93
2023-03-01T14:11:48.892Z,14.90
2023-03-01T14:14:42.357Z,16.53
2023-03-01T14:17:39.765Z,17.70
2023-03-01T14:20:30.775Z,18.33
2023-03-01T14:23:09.898Z,16.57
2023-03-01T14:25:37.403Z,18.20
2023-03-01T14:28:23.460Z,17.33
2023-03-01T14:30:52.702Z,18.30
2023-03-01T14:33:26.753Z,19.33
2023-03-01T14:36:08.259Z,16.47
2023-03-01T14:38:44.087Z,15.47
2023-03-01T14:41:27.027Z,13.27
2023-03-01T14:43:59.123Z,14.20
2023-03-01T14:46:37.910Z,13.70
2023-03-01T14:49:10.343Z,15.07
2023-03-01T14:51:41.413Z,12.53
2023-03-01T14:54:35.684Z,12.93
2023-03-01T14:57:07.221Z,13.03
2023-03-01T14:59:35.264Z,14.57
2023-03-01T15:02:06.752Z,12.57
2023-03-01T15:07:20.063Z,14.17
2023-03-01T15:09:50.461Z,14.63
2023-03-01T15:12:31.113Z,14.13
2023-03-01T15:15:04.916Z,16.10
2023-03-01T15:17:35.362Z,13.70
2023-03-01T15:20:09.124Z,15.40
2023-03-01T15:22:49.465Z,14.57
2023-03-01T15:25:18.268Z,16.33
2023-03-01T15:27:48.967Z,15.90
2023-03-01T15:30:24.770Z,17.03
2023-03-01T15:33:25.682Z,16.13
2023-03-01T15:36:10.557Z,15.83
2023-03-01T15:38:57.790Z,16.00
2023-03-01T15:41:28.920Z,15.20
2023-03-01T15:43:56.773Z,17.80
2023-03-01T15:46:27.821Z,14.63
2023-03-01T15:49:08.408Z,15.67
2023-03-01T15:51:38.437Z,15.50
2023-03-01T15:54:24.942Z,16.03
2023-03-01T15:56:53.046Z,19.40
2023-03-01T15:59:20.030Z,23.67
2023-03-01T16:01:51.805Z,19.73
2023-03-01T16:04:28.131Z,15.40
2023-03-01T16:06:55.252Z,16.33
2023-03-01T16:09:28.578Z,13.97
2023-03-01T16:11:57.954Z,12.93
2023-03-01T16:14:24.632Z,14.60
2023-03-01T16:16:51.374Z,14.03
2023-03-01T16:19:19.450Z,15.50
2023-03-01T16:21:50.378Z,15.93
2023-03-01T16:24:19.458Z,15.77
2023-03-01T16:26:50.002Z,14.17
2023-03-01T16:29:17.210Z,14.37
2023-03-01T16:31:48.984Z,13.33
2023-03-01T16:34:18.232Z,12.73
2023-03-01T16:36:50.246Z,12.43
2023-03-01T16:39:18.287Z,12.73
2023-03-01T16:41:50.920Z,13.57
2023-03-01T16:44:17.751Z,13.17
2023-03-01T16:46:44.581Z,13.57
2023-03-01T16:49:11.258Z,14.03
2023-03-01T16:51:41.061Z,13.27
2023-03-01T16:54:10.300Z,13.37
2023-03-01T16:56:42.244Z,13.03
2023-03-01T16:59:09.017Z,12.93
2023-03-01T17:01:41.805Z,15.03
2023-03-01T17:04:14.495Z,13.60
2023-03-01T17:06:44.343Z,13.87
2023-03-01T17:09:11.152Z,13.87
2023-03-01T17:11:38.896Z,13.20
2023-03-01T17:14:05.639Z,15.90
2023-03-01T17:16:34.601Z,15.13
2023-03-01T17:19:05.155Z,13.87
2023-03-01T17:21:40.871Z,15.00
2023-03-01T17:24:10.349Z,15.23
2023-03-01T17:26:41.763Z,13.57
2023-03-01T17:29:10.660Z,13.97
2023-03-01T17:31:45.080Z,13.50
2023-03-01T17:34:16.100Z,14.53
2023-03-01T17:36:46.848Z,14.43
2023-03-01T17:39:18.243Z,15.50
2023-03-01T17:41:49.172Z,16.10
2023-03-01T17:44:18.999Z,16.80
2023-03-01T17:46:46.251Z,15.10
2023-03-01T17:49:17.084Z,15.87
2023-03-01T17:51:52.162Z,14.97
2023-03-01T17:54:21.340Z,17.03
2023-03-01T17:56:51.807Z,15.13
2023-03-01T17:59:19.996Z,17.63
2023-03-01T18:01:47.226Z,14.80
2023-03-01T18:04:32.690Z,17.27
2023-03-01T18:07:02.278Z,14.43
2023-03-01T18:09:33.040Z,14.87
2023-03-01T18:12:03.941Z,16.07
2023-03-01T18:14:33.933Z,16.40
2023-03-01T18:17:03.881Z,17.83
2023-03-01T18:19:35.396Z,16.93
2023-03-01T18:22:02.100Z,14.53
2023-03-01T18:24:28.983Z,14.60
2023-03-01T18:26:55.965Z,15.43
2023-03-01T18:29:25.236Z,16.93
2023-03-01T18:32:04.394Z,16.17
2023-03-01T18:34:35.103Z,16.23
2023-03-01T18:37:09.489Z,16.63
2023-03-01T18:39:38.138Z,16.93
2023-03-01T18:42:06.328Z,17.30
2023-03-01T18:44:39.276Z,17.87
2023-03-01T18:47:12.148Z,16.60
2023-03-01T18:49:39.062Z,17.60
2023-03-01T18:52:08.269Z,17.33
2023-03-01T18:54:37.882Z,17.83
2023-03-01T18:57:09.251Z,17.30
2023-03-01T18:59:36.494Z,15.63
2023-03-01T19:02:06.179Z,16.87
2023-03-01T19:04:33.246Z,18.33
2023-03-01T19:07:05.076Z,18.67
2023-03-01T19:09:34.044Z,17.67
2023-03-01T19:12:03.547Z,17.40
2023-03-01T19:14:38.736Z,17.77
2023-03-01T19:17:07.958Z,20.53
2023-03-01T19:19:36.243Z,19.20
2023-03-01T19:22:06.121Z,17.73
2023-03-01T19:24:33.537Z,18.90
2023-03-01T19:27:00.183Z,18.00
2023-03-01T19:29:30.131Z,18.17
2023-03-01T19:31:59.349Z,18.43
2023-03-01T19:34:26.380Z,17.57
2023-03-01T19:36:53.397Z,16.50
2023-03-01T19:39:21.009Z,18.80
2023-03-01T19:41:50.262Z,17.80
2023-03-01T19:44:24.999Z,17.80
2023-03-01T19:46:57.351Z,18.57
2023-03-01T19:49:30.223Z,17.87
2023-03-01T19:51:56.873Z,21.20
2023-03-01T19:54:26.404Z,20.87
2023-03-01T19:56:56.199Z,19.30
2023-03-01T19:59:34.182Z,19.67
2023-03-01T20:02:01.499Z,18.43
2023-03-01T20:04:30.143Z,21.47
2023-03-01T20:06:59.548Z,19.33
2023-03-01T20:09:26.199Z,18.90
2023-03-01T20:11:53.240Z,18.43
2023-03-01T20:14:23.695Z,19.53
2023-03-01T20:16:51.105Z,20.37
2023-03-01T20:19:20.899Z,18.33
2023-03-01T20:21:49.910Z,20.87
2023-03-01T20:24:22.697Z,20.67
2023-03-01T20:26:51.316Z,19.17
2023-03-01T20:29:21.169Z,18.10
2023-03-01T20:31:47.800Z,19.37
2023-03-01T20:34:27.257Z,19.83
2023-03-01T20:36:56.829Z,21.83
2023-03-01T20:39:29.401Z,20.73
2023-03-01T20:42:01.272Z,19.57
2023-03-01T20:44:28.969Z,18.33
2023-03-01T20:46:56.113Z,20.17
2023-03-01T20:49:40.893Z,18.77
2023-03-01T20:52:08.459Z,22.67
2023-03-01T20:54:38.461Z,18.73
2023-03-01T20:57:06.934Z,18.97
2023-03-01T20:59:34.939Z,17.53
2023-03-01T21:02:01.695Z,20.97
2023-03-01T21:04:28.301Z,18.77
2023-03-01T21:06:57.373Z,21.40
2023-03-01T21:09:30.297Z,21.87
2023-03-01T21:12:03.046Z,19.33
2023-03-01T21:14:42.343Z,21.40
2023-03-01T21:17:14.432Z,20.23
2023-03-01T21:19:46.840Z,18.67
2023-03-01T21:22:15.297Z,21.63
2023-03-01T21:24:42.453Z,19.10
2023-03-01T21:27:11.143Z,20.33
2023-03-01T21:29:43.868Z,22.47
2023-03-01T21:32:12.020Z,20.80
2023-03-01T21:34:44.943Z,21.50
2023-03-01T21:37:11.948Z,18.30
2023-03-01T21:39:39.102Z,22.43
2023-03-01T21:42:07.307Z,21.20
2023-03-01T21:44:34.294Z,19.10
2023-03-01T21:47:04.098Z,21.63
2023-03-01T21:49:30.863Z,22.17
2023-03-01T21:51:59.081Z,20.87
2023-03-01T21:54:25.940Z,23.00
2023-03-01T21:56:55.050Z,20.13
2023-03-01T21:59:32.495Z,22.00
2023-03-01T22:02:06.438Z,23.67
2023-03-01T22:04:34.627Z,21.80
2023-03-01T22:07:01.268Z,25.80
2023-03-01T22:09:39.865Z,25.73
2023-03-01T22:12:06.783Z,24.77
2023-03-01T22:14:36.159Z,24.47
2023-03-01T22:17:02.995Z,27.63
2023-03-01T22:19:30.291Z,28.20
2023-03-01T22:21:56.942Z,26.50
2023-03-01T22:24:30.094Z,26.63
2023-03-01T22:27:02.176Z,24.47
2023-03-01T22:29:34.409Z,27.00
2023-03-01T22:32:03.535Z,25.90
2023-03-01T22:34:35.981Z,27.13
2023-03-01T22:37:05.346Z,29.30
2023-03-01T22:39:35.378Z,28.40
2023-03-01T22:42:06.067Z,31.33
2023-03-01T22:44:32.753Z,29.67
2023-03-01T22:47:03.500Z,29.77
2023-03-01T22:49:36.160Z,29.03
2023-03-01T22:52:02.977Z,27.47
2023-03-01T22:54:29.575Z,32.03
2023-03-01T22:56:56.328Z,29.87
2023-03-01T22:59:24.071Z,30.67
2023-03-01T23:01:53.320Z,30.67
2023-03-01T23:04:26.447Z,28.23
2023-03-01T23:06:56.112Z,31.57
2023-03-01T23:09:33.077Z,29.50
2023-03-01T23:12:06.712Z,35.43
2023-03-01T23:14:38.711Z,32.33
2023-03-01T23:17:08.217Z,34.70
2023-03-01T23:19:38.419Z,32.77
2023-03-01T23:22:06.672Z,31.67
2023-03-01T23:24:35.129Z,31.40
2023-03-01T23:27:02.632Z,35.60
2023-03-01T23:29:30.146Z,33.97
2023-03-01T23:31:57.730Z,31.47
2023-03-01T23:34:30.213Z,34.07
2023-03-01T23:36:58.656Z,34.43
2023-03-01T23:39:31.177Z,32.70
2023-03-01T23:41:58.377Z,34.53
2023-03-01T23:44:34.136Z,34.07
2023-03-01T23:47:06.992Z,31.77
2023-03-01T23:49:36.010Z,35.07
2023-03-01T23:52:02.699Z,32.90
2023-03-01T23:54:32.597Z,33.67
2023-03-01T23:57:02.048Z,31.53
2023-03-01T23:59:29.726Z,33.90
